createdAt,value
2022-09-30T00:00:29.786Z,101386.09
2022-09-30T00:03:56.851Z,101385.66
2022-09-30T00:07:20.787Z,101387.03
2022-09-30T00:10:44.855Z,101380.50
2022-09-30T00:14:10.790Z,101374.56
2022-09-30T00:17:35.854Z,101359.03
2022-09-30T00:21:00.828Z,101355.84
2022-09-30T00:24:24.870Z,101358.16
2022-09-30T00:27:48.879Z,101351.44
2022-09-30T00:31:11.458Z,101343.09
2022-09-30T00:34:28.827Z,101345.72
2022-09-30T00:37:53.856Z,101348.44
2022-09-30T00:41:18.879Z,101333.56
2022-09-30T00:45:10.857Z,101340.78
2022-09-30T00:48:37.867Z,101329.47
2022-09-30T00:52:07.819Z,101329.09
2022-09-30T00:56:00.877Z,101322.66
2022-09-30T00:59:30.857Z,101324.06
2022-09-30T01:02:54.866Z,101322.78
2022-09-30T01:06:18.817Z,101326.94
2022-09-30T01:09:44.951Z,101324.41
2022-09-30T01:13:08.865Z,101320.03
2022-09-30T01:16:52.965Z,101319.22
2022-09-30T01:20:34.863Z,101315.44
2022-09-30T01:24:15.901Z,101321.44
2022-09-30T01:27:55.452Z,101317.41
2022-09-30T01:31:23.917Z,101318.31
2022-09-30T01:34:54.907Z,101313.72
2022-09-30T01:39:08.909Z,101305.63
2022-09-30T01:42:52.887Z,101308.81
2022-09-30T01:46:51.960Z,101297.94
2022-09-30T01:50:55.934Z,101295.22
2022-09-30T01:54:33.876Z,101286.16
2022-09-30T01:58:15.946Z,101291.50
2022-09-30T02:01:55.014Z,101288.44
2022-09-30T02:05:29.903Z,101287.78
2022-09-30T02:09:21.141Z,101286.34
2022-09-30T02:12:48.959Z,101290.34
2022-09-30T02:16:23.989Z,101283.78
2022-09-30T02:19:51.913Z,101288.16
2022-09-30T02:23:25.984Z,101287.66
2022-09-30T02:26:55.970Z,101281.97
2022-09-30T02:30:19.923Z,101285.75
2022-09-30T02:34:18.908Z,101282.19
2022-09-30T02:37:43.000Z,101285.16
2022-09-30T02:41:29.941Z,101285.47
2022-09-30T02:44:53.898Z,101284.31
2022-09-30T02:48:39.931Z,101276.44
2022-09-30T02:52:35.928Z,101279.50
2022-09-30T02:56:19.875Z,101282.75
2022-09-30T02:59:43.881Z,101272.94
2022-09-30T03:03:13.941Z,101264.50
2022-09-30T03:06:38.897Z,101266.09
2022-09-30T03:10:02.909Z,101266.13
2022-09-30T03:14:01.906Z,101262.03
2022-09-30T03:17:44.863Z,101263.16
2022-09-30T03:21:23.910Z,101257.44
2022-09-30T03:25:21.871Z,101258.25
2022-09-30T03:28:53.920Z,101257.47
2022-09-30T03:32:38.897Z,101267.53
2022-09-30T03:36:13.974Z,101254.72
2022-09-30T03:39:51.965Z,101251.72
2022-09-30T03:43:33.975Z,101241.38
2022-09-30T03:47:04.989Z,101235.69
2022-09-30T03:50:33.029Z,101242.19
2022-09-30T03:53:58.995Z,101241.66
2022-09-30T03:57:22.928Z,101238.66
2022-09-30T04:00:47.052Z,101226.69
2022-09-30T04:04:11.952Z,101223.72
2022-09-30T04:07:36.010Z,101226.13
2022-09-30T04:11:00.987Z,101225.06
2022-09-30T04:14:25.030Z,101227.22
2022-09-30T04:17:50.052Z,101226.94
2022-09-30T04:21:13.981Z,101221.78
2022-09-30T04:24:38.996Z,101223.97
2022-09-30T04:28:02.949Z,101230.47
2022-09-30T04:31:28.997Z,101229.41
2022-09-30T04:34:46.548Z,101233.72
2022-09-30T04:38:05.988Z,101230.22
2022-09-30T04:41:32.966Z,101226.16
2022-09-30T04:44:56.949Z,101217.69
2022-09-30T04:48:20.916Z,101216.34
2022-09-30T04:51:48.870Z,101220.44
2022-09-30T04:55:12.919Z,101220.69
2022-09-30T04:58:37.218Z,101224.50
2022-09-30T05:02:01.036Z,101228.34
2022-09-30T05:05:25.964Z,101228.88
2022-09-30T05:08:52.986Z,101228.59
2022-09-30T05:12:16.054Z,101235.13
2022-09-30T05:15:39.946Z,101237.56
2022-09-30T05:19:02.983Z,101237.56
2022-09-30T05:22:27.000Z,101233.25
2022-09-30T05:25:50.932Z,101237.03
2022-09-30T05:29:14.975Z,101234.88
2022-09-30T05:32:40.000Z,101243.03
2022-09-30T05:36:05.114Z,101235.91
2022-09-30T05:39:28.936Z,101236.44
2022-09-30T05:42:55.017Z,101244.91
2022-09-30T05:46:20.043Z,101254.44
2022-09-30T05:49:43.988Z,101257.69
2022-09-30T05:53:07.992Z,101252.25
2022-09-30T05:56:32.013Z,101243.00
2022-09-30T05:59:55.974Z,101246.53
2022-09-30T06:03:29.005Z,101242.44
2022-09-30T06:06:52.979Z,101244.56
2022-09-30T06:10:19.995Z,101244.88
2022-09-30T06:13:45.013Z,101251.38
2022-09-30T06:17:08.966Z,101246.75
2022-09-30T06:20:33.044Z,101249.19
2022-09-30T06:23:56.979Z,101254.34
2022-09-30T06:27:21.084Z,101264.69
2022-09-30T06:30:45.006Z,101271.22
2022-09-30T06:34:10.035Z,101282.88
2022-09-30T06:37:33.963Z,101279.38
2022-09-30T06:40:59.038Z,101283.19
2022-09-30T06:44:23.063Z,101283.44
2022-09-30T06:47:58.046Z,101299.75
2022-09-30T06:51:24.959Z,101294.56
2022-09-30T06:54:52.067Z,101297.78
2022-09-30T06:58:18.017Z,101300.25
2022-09-30T07:01:41.046Z,101300.25
2022-09-30T07:05:06.007Z,101300.25
2022-09-30T07:08:31.008Z,101298.56
2022-09-30T07:11:56.967Z,101300.75
2022-09-30T07:15:21.022Z,101309.44
2022-09-30T07:18:46.018Z,101321.66
2022-09-30T07:22:30.057Z,101325.19
2022-09-30T07:25:55.021Z,101331.47
2022-09-30T07:29:19.057Z,101333.63
2022-09-30T07:32:42.966Z,101334.19
2022-09-30T07:36:16.115Z,101347.81
2022-09-30T07:39:40.966Z,101357.03
2022-09-30T07:43:06.066Z,101376.06
2022-09-30T07:46:37.029Z,101381.81
2022-09-30T07:50:01.061Z,101402.44
2022-09-30T07:53:25.100Z,101408.91
2022-09-30T07:57:09.119Z,101413.78
2022-09-30T08:00:42.923Z,101428.22
2022-09-30T08:04:10.022Z,101424.41
2022-09-30T08:07:34.088Z,101430.84
2022-09-30T08:10:58.035Z,101432.69
2022-09-30T08:14:22.107Z,101448.56
2022-09-30T08:17:45.992Z,101451.34
2022-09-30T08:21:10.088Z,101467.25
2022-09-30T08:24:34.087Z,101462.13
2022-09-30T08:27:58.008Z,101463.22
2022-09-30T08:31:38.086Z,101477.50
2022-09-30T08:34:54.607Z,101470.13
2022-09-30T08:38:12.085Z,101478.34
2022-09-30T08:41:51.039Z,101478.72
2022-09-30T08:45:31.224Z,101476.59
2022-09-30T08:49:10.050Z,101490.63
2022-09-30T08:52:49.021Z,101498.72
2022-09-30T08:56:14.061Z,101496.13
2022-09-30T08:59:48.105Z,101493.31
2022-09-30T09:03:17.053Z,101506.13
2022-09-30T09:06:53.070Z,101500.22
2022-09-30T09:10:41.098Z,101500.47
2022-09-30T09:14:17.089Z,101494.94
2022-09-30T09:17:47.073Z,101502.13
2022-09-30T09:21:59.058Z,101497.56
2022-09-30T09:25:35.062Z,101499.06
2022-09-30T09:29:26.103Z,101508.97
2022-09-30T09:32:50.036Z,101510.34
2022-09-30T09:36:14.056Z,101518.22
2022-09-30T09:39:57.019Z,101519.06
2022-09-30T09:43:38.055Z,101511.69
2022-09-30T09:47:01.089Z,101500.59
2022-09-30T09:50:34.136Z,101497.69
2022-09-30T09:54:07.079Z,101501.91
2022-09-30T09:57:39.105Z,101497.09
2022-09-30T10:01:06.336Z,101486.41
2022-09-30T10:04:35.133Z,101490.75
2022-09-30T10:07:59.064Z,101491.69
2022-09-30T10:11:37.051Z,101493.69
2022-09-30T10:15:16.063Z,101496.63
2022-09-30T10:18:51.072Z,101498.28
2022-09-30T10:22:25.081Z,101504.03
2022-09-30T10:25:49.092Z,101493.81
2022-09-30T10:29:15.062Z,101487.00
2022-09-30T10:32:39.127Z,101492.75
2022-09-30T10:36:21.769Z,101495.59
2022-09-30T10:39:43.131Z,101497.91
2022-09-30T10:43:06.096Z,101496.63
2022-09-30T10:46:47.095Z,101491.09
2022-09-30T10:50:24.148Z,101487.94
2022-09-30T10:53:50.106Z,101485.72
2022-09-30T10:57:17.148Z,101491.56
2022-09-30T11:00:43.197Z,101486.03
2022-09-30T11:04:25.114Z,101482.31
2022-09-30T11:08:13.130Z,101476.16
2022-09-30T11:11:41.115Z,101492.97
2022-09-30T11:15:22.160Z,101489.59
2022-09-30T11:19:11.058Z,101481.78
2022-09-30T11:22:48.155Z,101485.34
2022-09-30T11:26:23.066Z,101468.16
2022-09-30T11:29:59.097Z,101476.25
2022-09-30T11:33:29.109Z,101487.53
2022-09-30T11:37:34.149Z,101485.28
2022-09-30T11:41:10.102Z,101481.56
2022-09-30T11:44:54.111Z,101476.16
2022-09-30T11:48:54.130Z,101471.22
2022-09-30T11:52:40.141Z,101481.06
2022-09-30T11:56:26.359Z,101463.34
2022-09-30T12:00:09.120Z,101459.78
2022-09-30T12:03:42.138Z,101468.94
2022-09-30T12:07:36.126Z,101464.25
2022-09-30T12:11:12.091Z,101462.13
2022-09-30T12:14:45.136Z,101460.84
2022-09-30T12:18:29.097Z,101463.88
2022-09-30T12:22:50.169Z,101462.81
2022-09-30T12:26:16.119Z,101455.06
2022-09-30T12:30:11.223Z,101458.78
2022-09-30T12:34:00.107Z,101457.50
2022-09-30T12:37:48.127Z,101459.38
2022-09-30T12:41:32.148Z,101457.13
2022-09-30T12:45:31.171Z,101463.16
2022-09-30T12:49:07.142Z,101444.47
2022-09-30T12:52:36.129Z,101451.50
2022-09-30T12:56:00.131Z,101444.19
2022-09-30T12:59:24.124Z,101446.47
2022-09-30T13:02:57.131Z,101437.66
2022-09-30T13:06:21.068Z,101444.47
2022-09-30T13:09:53.146Z,101441.84
2022-09-30T13:13:40.162Z,101437.38
2022-09-30T13:17:21.179Z,101431.41
2022-09-30T13:21:22.194Z,101422.59
2022-09-30T13:25:28.135Z,101418.00
2022-09-30T13:28:54.153Z,101405.00
2022-09-30T13:32:21.172Z,101407.91
2022-09-30T13:36:14.148Z,101402.53
2022-09-30T13:39:37.746Z,101402.06
2022-09-30T13:43:02.200Z,101401.94
2022-09-30T13:46:29.347Z,101396.91
2022-09-30T13:50:08.157Z,101393.16
2022-09-30T13:53:54.153Z,101386.56
2022-09-30T13:57:19.196Z,101385.41
2022-09-30T14:00:56.203Z,101381.88
2022-09-30T14:04:58.189Z,101381.88
2022-09-30T14:08:44.121Z,101380.81
2022-09-30T14:12:41.174Z,101373.41
2022-09-30T14:16:14.193Z,101373.41
2022-09-30T14:19:50.208Z,101368.28
2022-09-30T14:23:14.161Z,101364.63
2022-09-30T14:26:50.177Z,101350.13
2022-09-30T14:30:18.204Z,101350.91
2022-09-30T14:33:42.153Z,101338.13
2022-09-30T14:37:08.182Z,101343.53
2022-09-30T14:40:44.195Z,101346.22
2022-09-30T14:44:16.162Z,101356.31
2022-09-30T14:47:40.183Z,101332.88
2022-09-30T14:51:15.212Z,101326.41
2022-09-30T14:54:41.170Z,101334.72
2022-09-30T14:58:06.233Z,101326.41
2022-09-30T15:01:34.257Z,101335.09
2022-09-30T15:05:07.216Z,101338.28
2022-09-30T15:08:36.191Z,101330.63
2022-09-30T15:11:59.183Z,101328.97
2022-09-30T15:15:43.145Z,101344.91
2022-09-30T15:19:07.315Z,101340.84
2022-09-30T15:22:32.184Z,101342.69
2022-09-30T15:25:56.236Z,101340.25
2022-09-30T15:29:21.187Z,101325.34
2022-09-30T15:32:51.326Z,101303.41
2022-09-30T15:36:42.224Z,101299.06
2022-09-30T15:40:25.232Z,101295.19
2022-09-30T15:43:53.340Z,101296.13
2022-09-30T15:47:13.250Z,101295.78
2022-09-30T15:51:04.215Z,101294.72
2022-09-30T15:54:51.233Z,101289.94
2022-09-30T15:58:15.165Z,101281.25
2022-09-30T16:01:47.210Z,101282.31
2022-09-30T16:05:11.163Z,101275.84
2022-09-30T16:08:41.273Z,101280.44
2022-09-30T16:12:13.175Z,101274.00
2022-09-30T16:15:38.223Z,101270.47
2022-09-30T16:19:03.204Z,101275.28
2022-09-30T16:22:57.198Z,101268.25
2022-09-30T16:26:36.244Z,101268.69
2022-09-30T16:30:01.197Z,101268.69
2022-09-30T16:33:27.218Z,101270.94
2022-09-30T16:36:52.234Z,101272.78
2022-09-30T16:40:24.297Z,101272.22
2022-09-30T16:43:48.228Z,101263.91
2022-09-30T16:47:12.304Z,101262.00
2022-09-30T16:50:55.235Z,101264.72
2022-09-30T16:54:19.293Z,101255.81
2022-09-30T16:57:43.200Z,101258.50
2022-09-30T17:01:08.321Z,101262.84
2022-09-30T17:04:32.204Z,101269.03
2022-09-30T17:07:58.232Z,101268.59
2022-09-30T17:11:23.233Z,101279.38
2022-09-30T17:14:47.284Z,101281.47
2022-09-30T17:18:12.226Z,101244.78
2022-09-30T17:21:37.275Z,101249.38
2022-09-30T17:25:01.283Z,101251.59
2022-09-30T17:28:26.255Z,101250.78
2022-09-30T17:31:50.239Z,101252.28
2022-09-30T17:35:16.209Z,101254.28
2022-09-30T17:38:40.272Z,101260.50
2022-09-30T17:42:22.238Z,101254.88
2022-09-30T17:45:46.323Z,101276.81
2022-09-30T17:49:10.291Z,101274.22
2022-09-30T17:52:35.229Z,101282.78
2022-09-30T17:56:00.290Z,101278.75
2022-09-30T17:59:27.261Z,101275.63
2022-09-30T18:02:52.221Z,101275.34
2022-09-30T18:06:15.330Z,101291.09
2022-09-30T18:09:39.220Z,101294.59
2022-09-30T18:13:03.296Z,101287.34
2022-09-30T18:16:27.329Z,101289.56
2022-09-30T18:19:51.268Z,101291.66
2022-09-30T18:23:15.227Z,101285.69
2022-09-30T18:26:40.277Z,101292.03
2022-09-30T18:30:04.232Z,101289.09
2022-09-30T18:33:30.272Z,101285.47
2022-09-30T18:36:54.273Z,101267.66
2022-09-30T18:40:19.437Z,101278.09
2022-09-30T18:43:44.269Z,101270.13
2022-09-30T18:47:09.268Z,101290.53
2022-09-30T18:50:26.837Z,101287.13
2022-09-30T18:53:45.258Z,101287.97
2022-09-30T18:57:09.265Z,101290.56
2022-09-30T19:00:35.372Z,101286.66
2022-09-30T19:04:00.334Z,101293.13
2022-09-30T19:07:25.352Z,101285.50
2022-09-30T19:10:50.325Z,101287.03
2022-09-30T19:14:15.241Z,101279.63
2022-09-30T19:17:41.335Z,101285.84
2022-09-30T19:21:05.325Z,101287.63
2022-09-30T19:24:29.266Z,101285.63
2022-09-30T19:27:54.320Z,101278.84
2022-09-30T19:31:29.457Z,101277.91
2022-09-30T19:35:03.916Z,101270.88
2022-09-30T19:38:37.078Z,101270.00
2022-09-30T19:42:04.071Z,101267.31
2022-09-30T19:45:32.381Z,101268.88
2022-09-30T19:48:50.053Z,101262.97
2022-09-30T19:52:17.869Z,101260.97
2022-09-30T19:55:50.557Z,101261.69
2022-09-30T19:59:16.340Z,101274.41
2022-09-30T20:02:40.349Z,101268.50
2022-09-30T20:06:04.270Z,101276.75
2022-09-30T20:09:29.314Z,101273.00
2022-09-30T20:12:53.329Z,101267.81
2022-09-30T20:16:22.363Z,101273.91
2022-09-30T20:19:46.345Z,101269.81
2022-09-30T20:23:09.294Z,101274.13
2022-09-30T20:26:34.340Z,101265.22
2022-09-30T20:29:58.330Z,101261.56
2022-09-30T20:33:22.334Z,101256.22
2022-09-30T20:36:48.278Z,101256.19
2022-09-30T20:40:12.299Z,101254.28
2022-09-30T20:43:38.331Z,101243.53
2022-09-30T20:47:02.288Z,101245.38
2022-09-30T20:50:36.190Z,101240.34
2022-09-30T20:54:04.301Z,101241.34
2022-09-30T20:57:27.334Z,101229.16
2022-09-30T21:00:53.403Z,101242.44
2022-09-30T21:04:17.323Z,101236.53
2022-09-30T21:07:42.360Z,101232.78
2022-09-30T21:11:08.290Z,101230.16
2022-09-30T21:14:32.365Z,101217.53
2022-09-30T21:17:56.287Z,101219.75
2022-09-30T21:21:21.378Z,101213.22
2022-09-30T21:24:45.350Z,101216.31
2022-09-30T21:28:09.402Z,101217.91
2022-09-30T21:31:38.349Z,101217.72
2022-09-30T21:35:02.392Z,101207.22
2022-09-30T21:38:26.285Z,101209.22
2022-09-30T21:41:51.332Z,101214.13
2022-09-30T21:45:16.367Z,101209.78
2022-09-30T21:48:43.368Z,101205.94
2022-09-30T21:52:01.880Z,101199.91
2022-09-30T21:55:20.336Z,101198.00
2022-09-30T21:58:46.332Z,101195.50
2022-09-30T22:02:09.378Z,101198.50
2022-09-30T22:05:34.347Z,101190.84
2022-09-30T22:08:58.345Z,101191.00
2022-09-30T22:12:23.311Z,101185.31
2022-09-30T22:15:47.347Z,101182.56
2022-09-30T22:19:12.329Z,101182.81
2022-09-30T22:22:29.370Z,101173.84
2022-09-30T22:25:53.400Z,101154.41
2022-09-30T22:29:19.326Z,101156.28
2022-09-30T22:32:43.356Z,101157.97
2022-09-30T22:36:28.391Z,101148.28
2022-09-30T22:39:53.192Z,101145.81
2022-09-30T22:43:21.352Z,101141.53
2022-09-30T22:46:47.394Z,101134.47
2022-09-30T22:50:11.325Z,101137.25
2022-09-30T22:53:35.415Z,101130.34
2022-09-30T22:56:59.503Z,101113.31
2022-09-30T23:00:23.406Z,101108.69
2022-09-30T23:03:47.344Z,101104.94
2022-09-30T23:07:13.401Z,101099.97
2022-09-30T23:10:37.375Z,101085.97
2022-09-30T23:14:01.355Z,101074.09
2022-09-30T23:17:25.349Z,101076.72
2022-09-30T23:20:49.372Z,101060.44
2022-09-30T23:24:13.399Z,101066.03
2022-09-30T23:27:37.373Z,101057.69
2022-09-30T23:31:02.422Z,101051.81
2022-09-30T23:34:26.376Z,101053.59
2022-09-30T23:37:50.399Z,101054.19
2022-09-30T23:41:15.453Z,101050.44
2022-09-30T23:44:39.398Z,101040.06
2022-09-30T23:48:05.427Z,101037.53
2022-09-30T23:51:31.590Z,101032.94
2022-09-30T23:54:49.929Z,101022.31
2022-09-30T23:58:16.439Z,101022.06
